createdAt,value
2022-11-19T00:05:26.013Z,100.00
2022-11-19T00:13:01.230Z,100.00
2022-11-19T00:20:36.730Z,100.00
2022-11-19T00:28:11.947Z,100.00
2022-11-19T00:35:45.834Z,100.00
2022-11-19T00:43:41.393Z,100.00
2022-11-19T00:51:16.307Z,100.00
2022-11-19T00:58:52.861Z,99.94
2022-11-19T01:06:27.510Z,100.00
2022-11-19T01:14:03.711Z,100.00
2022-11-19T01:21:38.056Z,100.00
2022-11-19T01:29:13.245Z,99.88
2022-11-19T01:36:47.162Z,99.70
2022-11-19T01:44:57.509Z,99.85
2022-11-19T01:52:31.714Z,99.68
2022-11-19T02:00:08.888Z,100.00
2022-11-19T02:07:46.313Z,100.00
2022-11-19T02:15:33.372Z,99.58
2022-11-19T02:23:36.072Z,100.00
2022-11-19T02:31:16.095Z,100.00
2022-11-19T02:38:54.753Z,100.00
2022-11-19T02:46:30.207Z,100.00
2022-11-19T02:54:06.112Z,99.56
2022-11-19T03:02:02.459Z,99.70
2022-11-19T03:09:40.632Z,99.38
2022-11-19T03:17:18.447Z,99.05
2022-11-19T03:25:00.204Z,99.00
2022-11-19T03:32:38.841Z,99.74
2022-11-19T03:40:16.367Z,99.86
2022-11-19T03:47:53.203Z,100.00
2022-11-19T03:55:32.865Z,99.48
2022-11-19T04:03:08.156Z,99.38
2022-11-19T04:10:42.226Z,99.46
2022-11-19T04:18:17.434Z,99.63
2022-11-19T04:25:51.538Z,99.58
2022-11-19T04:33:26.730Z,99.76
2022-11-19T04:41:00.591Z,99.51
2022-11-19T04:48:36.289Z,99.57
2022-11-19T04:56:10.259Z,99.50
2022-11-19T05:03:45.489Z,98.78
2022-11-19T05:11:19.382Z,99.12
2022-11-19T05:18:54.652Z,98.72
2022-11-19T05:26:28.522Z,99.26
2022-11-19T05:34:03.740Z,99.31
2022-11-19T05:41:37.818Z,99.98
2022-11-19T05:49:13.206Z,100.00
2022-11-19T05:56:47.393Z,100.00
2022-11-19T06:04:22.567Z,100.00
2022-11-19T06:11:56.388Z,100.00
2022-11-19T06:19:31.618Z,100.00
2022-11-19T06:27:05.407Z,100.00
2022-11-19T06:34:40.702Z,100.00
2022-11-19T06:42:32.148Z,100.00
2022-11-19T06:50:08.885Z,100.00
2022-11-19T06:57:42.630Z,100.00
2022-11-19T07:05:18.690Z,100.00
2022-11-19T07:12:52.509Z,100.00
2022-11-19T07:20:27.654Z,100.00
2022-11-19T07:28:01.500Z,100.00
2022-11-19T07:35:36.760Z,100.00
2022-11-19T07:43:10.614Z,100.00
2022-11-19T07:50:56.208Z,100.00
2022-11-19T07:58:30.837Z,100.00
2022-11-19T08:06:07.432Z,100.00
2022-11-19T08:13:41.573Z,100.00
2022-11-19T08:21:16.725Z,100.00
2022-11-19T08:28:50.682Z,100.00
2022-11-19T08:36:25.876Z,100.00
2022-11-19T08:44:01.099Z,100.00
2022-11-19T08:51:36.303Z,100.00
2022-11-19T08:59:10.551Z,100.00
2022-11-19T09:06:45.890Z,100.00
2022-11-19T09:14:20.019Z,100.00
2022-11-19T09:21:55.437Z,100.00
2022-11-19T09:29:29.248Z,100.00
2022-11-19T09:37:04.624Z,100.00
2022-11-19T09:44:53.013Z,100.00
2022-11-19T09:52:33.841Z,97.05
2022-11-19T10:00:10.911Z,95.81
2022-11-19T10:07:59.077Z,93.02
2022-11-19T10:15:38.496Z,91.89
2022-11-19T10:23:18.556Z,87.34
2022-11-19T10:30:55.815Z,84.56
2022-11-19T10:38:35.269Z,83.73
2022-11-19T10:46:14.264Z,82.70
2022-11-19T10:53:50.385Z,80.95
2022-11-19T11:01:30.194Z,80.83
2022-11-19T11:09:05.737Z,78.65
2022-11-19T11:16:46.870Z,76.67
2022-11-19T11:24:23.008Z,75.84
2022-11-19T11:31:56.884Z,74.12
2022-11-19T11:39:35.699Z,73.77
2022-11-19T11:47:14.351Z,74.49
2022-11-19T11:54:58.515Z,73.74
2022-11-19T12:02:34.621Z,72.95
2022-11-19T12:10:25.128Z,73.17
2022-11-19T12:18:07.768Z,74.00
2022-11-19T12:25:54.640Z,75.44
2022-11-19T12:33:45.475Z,77.61
2022-11-19T12:41:38.282Z,78.33
2022-11-19T12:49:31.869Z,79.76
2022-11-19T12:57:23.965Z,80.65
2022-11-19T13:05:06.123Z,81.58
2022-11-19T13:12:45.203Z,82.31
2022-11-19T13:20:25.900Z,83.20
2022-11-19T13:28:05.250Z,83.69
2022-11-19T13:35:46.182Z,84.10
2022-11-19T13:43:40.816Z,86.02
2022-11-19T13:51:25.576Z,87.23
2022-11-19T13:59:00.943Z,89.08
2022-11-19T14:07:05.934Z,90.04
2022-11-19T14:15:23.509Z,92.95
2022-11-19T14:23:15.660Z,97.84
2022-11-19T14:31:05.774Z,100.00
2022-11-19T14:38:45.291Z,100.00
2022-11-19T14:46:27.602Z,100.00
2022-11-19T14:54:07.136Z,100.00
2022-11-19T15:01:59.265Z,100.00
2022-11-19T15:09:52.642Z,98.60
2022-11-19T15:17:29.294Z,95.17
2022-11-19T15:25:28.088Z,94.03
2022-11-19T15:33:19.487Z,95.29
2022-11-19T15:40:57.857Z,98.56
2022-11-19T15:48:40.521Z,100.00
2022-11-19T15:56:14.710Z,100.00
2022-11-19T16:03:52.011Z,100.00
2022-11-19T16:11:47.766Z,100.00
2022-11-19T16:19:23.684Z,100.00
2022-11-19T16:26:58.151Z,100.00
2022-11-19T16:34:36.766Z,100.00
2022-11-19T16:42:22.501Z,100.00
2022-11-19T16:50:01.812Z,100.00
2022-11-19T16:57:36.244Z,100.00
2022-11-19T17:05:15.552Z,100.00
2022-11-19T17:12:51.362Z,100.00
2022-11-19T17:20:53.081Z,100.00
2022-11-19T17:28:35.359Z,100.00
2022-11-19T17:36:14.525Z,100.00
2022-11-19T17:44:05.836Z,100.00
2022-11-19T17:51:41.179Z,100.00
2022-11-19T17:59:15.112Z,100.00
2022-11-19T18:06:50.704Z,100.00
2022-11-19T18:14:24.683Z,100.00
2022-11-19T18:22:00.769Z,100.00
2022-11-19T18:29:34.913Z,100.00
2022-11-19T18:37:10.348Z,100.00
2022-11-19T18:44:46.079Z,100.00
2022-11-19T18:52:21.759Z,100.00
2022-11-19T18:59:55.770Z,100.00
2022-11-19T19:07:31.321Z,100.00
2022-11-19T19:15:05.848Z,100.00
2022-11-19T19:22:41.446Z,100.00
2022-11-19T19:30:16.235Z,100.00
2022-11-19T19:37:51.705Z,100.00
2022-11-19T19:45:26.038Z,100.00
2022-11-19T19:53:01.879Z,100.00
2022-11-19T20:00:36.040Z,100.00
2022-11-19T20:08:11.677Z,100.00
2022-11-19T20:15:45.478Z,100.00
2022-11-19T20:23:20.815Z,100.00
2022-11-19T20:31:03.152Z,100.00
2022-11-19T20:38:39.119Z,100.00
2022-11-19T20:46:15.866Z,100.00
2022-11-19T20:53:51.255Z,100.00
2022-11-19T21:01:31.329Z,100.00
2022-11-19T21:09:07.535Z,100.00
2022-11-19T21:16:41.436Z,100.00
2022-11-19T21:24:16.862Z,100.00
2022-11-19T21:31:50.934Z,100.00
2022-11-19T21:39:26.400Z,100.00
2022-11-19T21:47:00.577Z,100.00
2022-11-19T21:54:37.029Z,100.00
2022-11-19T22:02:11.969Z,100.00
2022-11-19T22:09:47.249Z,100.00
2022-11-19T22:17:21.197Z,100.00
2022-11-19T22:24:56.384Z,100.00
2022-11-19T22:32:30.221Z,100.00
2022-11-19T22:40:06.331Z,100.00
2022-11-19T22:47:40.182Z,100.00
2022-11-19T22:55:16.641Z,100.00
2022-11-19T23:02:50.487Z,100.00
2022-11-19T23:10:25.863Z,100.00
2022-11-19T23:17:59.688Z,100.00
2022-11-19T23:25:35.052Z,100.00
2022-11-19T23:33:09.020Z,100.00
2022-11-19T23:40:44.285Z,100.00
2022-11-19T23:48:18.063Z,100.00
2022-11-19T23:55:53.472Z,100.00
